Time;durP1;ratioP1;P1;durP2;ratioP2;P2;SDS_P1;SDS_P2;PMS_P1;PMS_P2;Temp;Humidity;BMP_temperature;BMP_pressure;BME280_temperature;BME280_humidity;BME280_pressure;Samples;Min_cycle;Max_cycle;Signal;HPM_P1;HPM_P2
2021/08/13 00:00:15;;;;;;;8.73;5.12;;;;;;;18.37;52.15;101295.23;1823831;77;26524;-71
2021/08/13 00:02:42;;;;;;;9.23;5.67;;;;;;;18.34;52.19;101286.41;1834856;76;25851;-72
2021/08/13 00:05:11;;;;;;;6.65;5.15;;;;;;;18.31;52.32;101293.40;1839379;76;27546;-72
2021/08/13 00:07:38;;;;;;;7.83;5.00;;;;;;;18.29;52.39;101298.05;1847176;76;25994;-72
2021/08/13 00:10:09;;;;;;;9.88;5.50;;;;;;;18.25;52.48;101295.16;1848455;76;26544;-71
2021/08/13 00:12:38;;;;;;;8.78;5.10;;;;;;;18.22;52.57;101296.71;1790612;78;25899;-71
2021/08/13 00:15:07;;;;;;;11.80;5.97;;;;;;;18.19;52.64;101299.17;1779662;79;25725;-71
2021/08/13 00:17:33;;;;;;;9.28;5.80;;;;;;;18.18;52.74;101300.63;1773621;79;25718;-71
2021/08/13 00:19:58;;;;;;;9.60;6.25;;;;;;;18.14;52.79;101292.69;1770300;79;25870;-71
2021/08/13 00:22:26;;;;;;;9.15;5.70;;;;;;;18.12;52.88;101295.98;1841555;76;26555;-71
2021/08/13 00:24:52;;;;;;;7.45;5.42;;;;;;;18.10;52.95;101291.63;1839002;76;25791;-71
2021/08/13 00:27:18;;;;;;;11.65;6.30;;;;;;;18.08;53.01;101292.20;1849477;76;25858;-71
2021/08/13 00:29:44;;;;;;;9.48;6.00;;;;;;;18.04;53.07;101295.60;1850835;76;27533;-71
2021/08/13 00:32:11;;;;;;;15.03;6.45;;;;;;;18.01;53.13;101302.58;1846902;76;25866;-72
2021/08/13 00:34:38;;;;;;;8.73;6.17;;;;;;;17.98;53.20;101303.27;1843692;76;25799;-71
2021/08/13 00:37:08;;;;;;;9.50;5.47;;;;;;;17.96;53.27;101304.72;1849059;76;25882;-72
2021/08/13 00:39:34;;;;;;;10.82;5.60;;;;;;;17.93;53.38;101304.04;1850413;76;26402;-72
2021/08/13 00:42:02;;;;;;;25.77;8.78;;;;;;;17.91;53.41;101297.84;1844982;76;27452;-71
2021/08/13 00:44:30;;;;;;;9.38;5.58;;;;;;;17.89;53.46;101289.80;1810839;78;26467;-72
2021/08/13 00:46:57;;;;;;;10.20;6.15;;;;;;;17.88;53.53;101288.55;1811903;78;25827;-72
2021/08/13 00:49:23;;;;;;;10.70;6.03;;;;;;;17.86;53.61;101288.64;1802996;77;26222;-71
2021/08/13 00:51:52;;;;;;;12.58;6.22;;;;;;;17.83;53.67;101293.77;1804158;77;25782;-72
2021/08/13 00:54:19;;;;;;;10.55;6.20;;;;;;;17.81;53.75;101292.13;1804485;78;27980;-71
2021/08/13 00:56:46;;;;;;;13.90;6.15;;;;;;;17.78;53.83;101293.67;1814531;78;25784;-71
2021/08/13 00:59:13;;;;;;;9.90;5.92;;;;;;;17.76;53.91;101296.48;1810426;78;25665;-72
2021/08/13 01:01:40;;;;;;;8.40;5.58;;;;;;;17.73;53.97;101292.61;1809142;78;25857;-72
2021/08/13 01:04:08;;;;;;;13.68;6.70;;;;;;;17.70;54.04;101291.45;1813926;78;25837;-71
2021/08/13 01:06:37;;;;;;;10.18;6.60;;;;;;;17.67;54.19;101286.22;1820862;78;27393;-71
2021/08/13 01:09:07;;;;;;;11.25;6.62;;;;;;;17.67;54.27;101288.05;1816823;77;25875;-71
2021/08/13 01:11:52;;;;;;;9.30;5.70;;;;;;;17.63;54.36;101281.92;1862688;76;26518;-71
2021/08/13 01:14:48;;;;;;;14.30;6.95;;;;;;;17.62;54.48;101286.08;1844763;76;25816;-71
2021/08/13 01:17:19;;;;;;;11.12;5.97;;;;;;;17.60;54.56;101292.08;1805856;78;25768;-71
2021/08/13 01:20:05;;;;;;;;;;;;;;;17.56;54.70;101291.88;1870395;76;27362;-71
2021/08/13 01:22:49;;;;;;;9.88;5.67;;;;;;;17.52;54.94;101296.14;1848250;76;25711;-72
2021/08/13 01:25:22;;;;;;;15.00;6.55;;;;;;;17.46;54.87;101301.94;1848153;76;26311;-71
2021/08/13 01:27:51;;;;;;;11.88;6.70;;;;;;;17.43;54.94;101301.26;1845656;76;25795;-72
2021/08/13 01:30:20;;;;;;;11.50;6.85;;;;;;;17.40;55.06;101304.16;1858543;76;26391;-73
2021/08/13 01:32:57;;;;;;;16.40;7.10;;;;;;;17.37;55.16;101303.86;1833091;76;27411;-73
2021/08/13 01:35:28;;;;;;;19.17;6.42;;;;;;;17.35;55.29;101302.20;1859987;76;25642;-70
2021/08/13 01:38:05;;;;;;;10.68;6.87;;;;;;;17.31;55.37;101306.07;1853663;75;27987;-71
2021/08/13 01:40:33;;;;;;;12.35;6.40;;;;;;;17.28;55.54;101300.84;1807839;78;26433;-70
2021/08/13 01:43:02;;;;;;;15.25;6.72;;;;;;;17.26;55.64;101302.77;1854587;76;26426;-70
2021/08/13 01:45:32;;;;;;;9.33;6.50;;;;;;;17.24;55.81;101300.63;1844372;76;27419;-71
2021/08/13 01:48:01;;;;;;;14.15;6.28;;;;;;;17.22;55.92;101295.30;1861049;76;25743;-70
2021/08/13 01:50:28;;;;;;;11.18;6.97;;;;;;;17.17;56.08;101301.48;1859167;76;25715;-70
2021/08/13 01:52:59;;;;;;;14.58;7.40;;;;;;;17.14;56.24;101304.38;1850292;76;27849;-71
2021/08/13 01:55:27;;;;;;;9.80;6.40;;;;;;;17.10;56.41;101306.88;1853160;76;25899;-71
2021/08/13 01:57:54;;;;;;;15.25;7.08;;;;;;;17.05;56.58;101303.09;1854988;76;28235;-70
2021/08/13 02:00:27;;;;;;;12.90;6.53;;;;;;;17.03;56.67;101298.25;1853945;76;25737;-70
2021/08/13 02:02:59;;;;;;;19.67;7.95;;;;;;;17.01;56.80;101299.30;1854358;75;25771;-71
2021/08/13 02:05:32;;;;;;;13.98;6.97;;;;;;;16.95;56.94;101296.48;1800156;78;25881;-70
2021/08/13 02:08:03;;;;;;;17.57;7.62;;;;;;;16.93;57.02;101297.53;1809689;77;25742;-70
2021/08/13 02:10:33;;;;;;;11.80;6.72;;;;;;;16.91;57.21;101298.98;1808263;78;28120;-70
2021/08/13 02:12:59;;;;;;;10.78;6.67;;;;;;;16.88;57.28;101296.45;1818421;78;26035;-70
2021/08/13 02:15:26;;;;;;;10.80;7.25;;;;;;;16.84;57.37;101293.06;1808364;78;25709;-70
2021/08/13 02:18:03;;;;;;;15.93;7.62;;;;;;;16.83;57.46;101291.31;1817526;78;26087;-71
2021/08/13 02:20:34;;;;;;;12.90;6.62;;;;;;;16.81;57.63;101288.30;1799079;78;26432;-71
2021/08/13 02:23:02;;;;;;;11.33;6.60;;;;;;;16.80;57.68;101291.97;1798503;78;28090;-71
2021/08/13 02:25:28;;;;;;;11.70;6.62;;;;;;;16.80;57.82;101294.68;1805797;78;26502;-71
2021/08/13 02:27:54;;;;;;;12.25;7.28;;;;;;;16.77;57.86;101290.80;1807111;78;25920;-71
2021/08/13 02:30:20;;;;;;;16.50;7.20;;;;;;;16.77;57.98;101293.51;1812286;77;25867;-71
2021/08/13 02:32:48;;;;;;;10.30;6.47;;;;;;;16.77;58.09;101293.02;1807042;78;26472;-71
2021/08/13 02:35:17;;;;;;;13.80;7.17;;;;;;;16.76;58.15;101295.34;1803940;78;27488;-73
2021/08/13 02:38:10;;;;;;;10.63;7.33;;;;;;;16.74;58.25;101287.80;1800978;78;25749;-71
2021/08/13 02:40:47;;;;;;;12.43;6.60;;;;;;;16.76;58.32;101293.12;1799158;78;26455;-71
2021/08/13 02:43:27;;;;;;;9.60;6.20;;;;;;;16.73;58.42;101290.59;1816067;78;25842;-71
2021/08/13 02:45:59;;;;;;;10.40;6.53;;;;;;;16.71;58.47;101293.39;1821293;77;26029;-71
2021/08/13 02:48:28;;;;;;;15.32;7.20;;;;;;;16.70;58.55;101297.05;1798663;77;27528;-71
2021/08/13 02:50:57;;;;;;;9.85;6.87;;;;;;;16.68;58.58;101298.98;1800848;78;25762;-71
2021/08/13 02:53:26;;;;;;;15.05;7.53;;;;;;;16.67;58.65;101301.77;1803783;78;25737;-71
2021/08/13 02:56:09;;;;;;;13.25;7.47;;;;;;;16.64;58.73;101299.21;1798071;78;25754;-71
2021/08/13 02:59:03;;;;;;;13.45;7.45;;;;;;;16.61;58.85;101292.14;1813893;78;25754;-71
2021/08/13 03:01:34;;;;;;;10.78;7.65;;;;;;;16.59;58.96;101295.90;1801940;78;27455;-73
2021/08/13 03:04:05;;;;;;;11.10;7.12;;;;;;;16.57;59.03;101298.70;1820484;77;26496;-71
2021/08/13 03:06:36;;;;;;;17.45;7.87;;;;;;;16.54;59.18;101294.33;1814396;77;25847;-73
2021/08/13 03:09:07;;;;;;;13.55;7.22;;;;;;;16.53;59.22;101293.07;1812062;77;25970;-73
2021/08/13 03:11:38;;;;;;;19.48;7.70;;;;;;;16.51;59.29;101303.11;1819985;77;25740;-71
2021/08/13 03:14:09;;;;;;;15.68;7.00;;;;;;;16.49;59.37;101295.56;1819149;77;27537;-73
2021/08/13 03:16:39;;;;;;;16.60;8.00;;;;;;;16.47;59.41;101301.54;1821029;77;25733;-71
2021/08/13 03:19:06;;;;;;;15.27;7.67;;;;;;;16.45;59.52;101302.98;1820226;77;25722;-71
2021/08/13 03:21:32;;;;;;;18.73;7.42;;;;;;;16.44;59.60;101302.59;1800970;79;25914;-73
2021/08/13 03:24:02;;;;;;;10.13;7.42;;;;;;;16.41;59.66;101297.35;1832955;76;25674;-73
2021/08/13 03:26:29;;;;;;;14.27;7.37;;;;;;;16.38;59.72;101296.17;1829201;77;28374;-71
2021/08/13 03:28:59;;;;;;;16.62;7.75;;;;;;;16.34;59.85;101289.67;1814233;77;26003;-71
2021/08/13 03:31:35;;;;;;;12.75;7.85;;;;;;;16.31;59.90;101293.42;1818837;77;25681;-71
2021/08/13 03:34:09;;;;;;;15.43;7.72;;;;;;;16.27;60.01;101290.50;1819601;77;26423;-71
2021/08/13 03:36:37;;;;;;;24.45;8.03;;;;;;;16.27;60.06;101293.69;1825110;77;25721;-71
2021/08/13 03:39:09;;;;;;;17.15;8.48;;;;;;;16.25;60.20;101287.01;1817784;77;28133;-71
2021/08/13 03:41:36;;;;;;;13.43;8.23;;;;;;;16.24;60.28;101284.78;1811704;77;25948;-71
2021/08/13 03:44:06;;;;;;;13.30;7.45;;;;;;;16.26;60.33;101286.53;1815119;77;25732;-71
2021/08/13 03:46:35;;;;;;;16.60;8.93;;;;;;;16.22;60.41;101289.89;1829106;76;26381;-71
2021/08/13 03:49:03;;;;;;;11.70;7.50;;;;;;;16.21;60.50;101288.14;1823287;77;25740;-71
2021/08/13 03:51:29;;;;;;;20.23;8.85;;;;;;;16.19;60.53;101287.36;1812019;77;27332;-71
2021/08/13 03:53:56;;;;;;;14.40;8.38;;;;;;;16.16;60.62;101287.53;1824810;77;26527;-71
2021/08/13 03:56:25;;;;;;;17.80;7.85;;;;;;;16.13;60.71;101286.34;1821028;77;25752;-71
2021/08/13 03:58:53;;;;;;;24.92;9.33;;;;;;;16.12;60.81;101291.36;1826617;77;27798;-71
2021/08/13 04:01:22;;;;;;;;;;;;;;;16.12;60.86;101291.36;1824751;77;25849;-71
2021/08/13 04:03:48;;;;;;;12.90;8.10;;;;;;;16.10;61.02;101286.52;1814315;77;27442;-71
2021/08/13 04:06:13;;;;;;;14.50;8.40;;;;;;;16.07;61.04;101282.64;1816748;78;25689;-71
2021/08/13 04:08:39;;;;;;;15.50;8.20;;;;;;;16.08;61.05;101282.55;1808362;78;25908;-71
2021/08/13 04:11:08;;;;;;;16.50;8.78;;;;;;;16.10;61.07;101283.81;1799890;78;25777;-71
2021/08/13 04:13:35;;;;;;;16.37;8.25;;;;;;;16.11;61.13;101292.33;1812525;78;26235;-71
2021/08/13 04:16:03;;;;;;;22.85;9.38;;;;;;;16.11;61.20;101284.21;1810398;77;27374;-74
2021/08/13 04:18:29;;;;;;;12.50;8.53;;;;;;;16.11;61.26;101280.16;1807099;78;25824;-71
2021/08/13 04:20:58;;;;;;;12.75;8.28;;;;;;;16.12;61.32;101283.25;1811514;78;25789;-71
2021/08/13 04:23:23;;;;;;;12.33;8.05;;;;;;;16.13;61.38;101279.59;1843917;76;26384;-71
2021/08/13 04:25:50;;;;;;;28.00;9.58;;;;;;;16.14;61.40;101281.33;1855171;76;25740;-71
2021/08/13 04:28:21;;;;;;;18.17;9.40;;;;;;;16.16;61.45;101285.70;1858748;76;27530;-71
2021/08/13 04:30:48;;;;;;;;;;;;;;;16.18;61.45;101281.55;1854406;76;25891;-71
2021/08/13 04:33:14;;;;;;;22.98;9.80;;;;;;;16.18;61.62;101276.14;1850261;76;25670;-71
2021/08/13 04:35:41;;;;;;;13.35;8.68;;;;;;;16.17;61.55;101280.68;1845394;76;25917;-70
2021/08/13 04:38:07;;;;;;;16.85;9.70;;;;;;;16.18;61.58;101274.31;1807781;78;25686;-71
2021/08/13 04:40:36;;;;;;;12.43;8.78;;;;;;;16.21;61.64;101272.78;1803208;78;28258;-69
2021/08/13 04:43:04;;;;;;;15.68;9.75;;;;;;;16.24;61.64;101274.44;1809909;78;25858;-69
2021/08/13 04:45:30;;;;;;;20.88;9.68;;;;;;;16.26;61.72;101276.58;1808346;78;26189;-70
2021/08/13 04:47:59;;;;;;;19.75;10.15;;;;;;;16.31;61.71;101283.95;1809534;78;26891;-68
2021/08/13 04:50:28;;;;;;;15.45;9.63;;;;;;;16.33;61.77;101280.69;1800544;78;25694;-69
2021/08/13 04:52:54;;;;;;;16.32;9.98;;;;;;;16.36;61.79;101283.70;1865829;76;27448;-69
2021/08/13 04:55:29;;;;;;;22.30;10.35;;;;;;;16.40;61.82;101280.72;1800298;78;25766;-69
2021/08/13 04:57:58;;;;;;;19.45;9.85;;;;;;;16.46;61.82;101284.91;1858826;76;26417;-68
2021/08/13 05:00:24;;;;;;;21.73;10.45;;;;;;;16.50;61.83;101283.30;1844459;76;26151;-69
2021/08/13 05:02:52;;;;;;;16.73;10.75;;;;;;;16.54;61.82;101281.28;1851070;76;25871;-68
2021/08/13 05:05:19;;;;;;;18.85;11.05;;;;;;;16.59;61.81;101286.43;1828677;76;29515;-68
2021/08/13 05:07:45;;;;;;;19.27;11.08;;;;;;;16.64;61.86;101287.03;1820340;77;26444;-68
2021/08/13 05:10:16;;;;;;;18.62;10.75;;;;;;;16.70;61.83;101284.87;1828355;77;26395;-69
2021/08/13 05:12:43;;;;;;;;;;;;;;;16.75;61.79;101287.31;1835219;77;26421;-69
2021/08/13 05:15:11;;;;;;;19.85;9.98;;;;;;;16.80;61.80;101291.97;1820954;77;26425;-70
2021/08/13 05:17:39;;;;;;;16.87;10.13;;;;;;;16.84;61.74;101288.13;1829666;77;27365;-72
2021/08/13 05:20:07;;;;;;;25.20;10.65;;;;;;;16.90;61.72;101291.82;1820849;77;25273;-73
2021/08/13 05:22:36;;;;;;;15.60;9.75;;;;;;;16.96;61.65;101292.81;1832924;77;25956;-72
2021/08/13 05:25:09;;;;;;;13.78;8.88;;;;;;;17.01;61.61;101294.77;1816363;77;25731;-67
2021/08/13 05:27:40;;;;;;;18.45;9.85;;;;;;;17.08;61.55;101296.14;1822404;77;25744;-68
2021/08/13 05:30:10;;;;;;;14.73;10.18;;;;;;;17.15;61.48;101302.94;1816077;77;28262;-68
2021/08/13 05:32:42;;;;;;;16.55;9.45;;;;;;;17.21;61.38;101300.34;1823177;77;25804;-68
2021/08/13 05:35:11;;;;;;;20.00;10.03;;;;;;;17.28;61.33;101297.64;1834534;77;26332;-68
2021/08/13 05:37:38;;;;;;;21.73;10.65;;;;;;;17.35;61.26;101294.08;1819011;77;25774;-68
2021/08/13 05:40:07;;;;;;;20.95;10.03;;;;;;;17.40;61.21;101287.89;1818816;77;25710;-68
2021/08/13 05:42:35;;;;;;;21.93;10.00;;;;;;;17.48;61.15;101286.94;1830511;77;27531;-68
2021/08/13 05:45:06;;;;;;;31.33;10.23;;;;;;;17.54;61.10;101282.48;1815908;77;25871;-68
2021/08/13 05:47:33;;;;;;;23.43;10.63;;;;;;;17.60;61.02;101278.53;1816188;77;25766;-68
2021/08/13 05:50:00;;;;;;;25.05;10.55;;;;;;;17.67;60.96;101286.22;1827909;77;25855;-70
2021/08/13 05:52:27;;;;;;;25.43;10.20;;;;;;;17.75;60.92;101289.80;1814047;77;26487;-68
2021/08/13 05:54:55;;;;;;;23.60;10.55;;;;;;;17.83;60.89;101282.92;1827019;77;27552;-69
2021/08/13 05:57:21;;;;;;;23.90;9.98;;;;;;;17.92;60.80;101282.83;1831731;77;25718;-68
2021/08/13 05:59:50;;;;;;;21.75;10.10;;;;;;;18.00;60.75;101283.20;1822503;76;25849;-69
2021/08/13 06:02:19;;;;;;;30.55;10.65;;;;;;;18.09;60.70;101281.74;1817582;77;25851;-69
2021/08/13 06:04:45;;;;;;;31.70;10.15;;;;;;;18.20;60.63;101284.63;1836994;76;26087;-69
2021/08/13 06:07:12;;;;;;;24.45;10.15;;;;;;;18.30;60.54;101281.67;1807359;78;28120;-69
2021/08/13 06:09:38;;;;;;;32.45;10.45;;;;;;;18.38;60.48;101277.97;1802641;78;25895;-68
2021/08/13 06:12:06;;;;;;;25.32;9.15;;;;;;;18.46;60.39;101286.48;1811059;78;25733;-72
2021/08/13 06:14:33;;;;;;;27.70;9.85;;;;;;;18.57;60.33;101287.61;1797982;78;26405;-68
2021/08/13 06:17:04;;;;;;;22.93;9.23;;;;;;;18.67;60.21;101295.08;1799333;78;25808;-71
2021/08/13 06:19:36;;;;;;;18.92;9.30;;;;;;;18.78;60.14;101288.92;1784288;79;28451;-70
2021/08/13 06:22:04;;;;;;;22.20;9.65;;;;;;;18.90;60.02;101289.95;1773263;79;25758;-68
2021/08/13 06:24:31;;;;;;;18.23;9.43;;;;;;;19.01;59.86;101290.95;1853860;76;26212;-68
2021/08/13 06:26:59;;;;;;;22.17;8.65;;;;;;;19.11;59.74;101292.55;1805529;78;25762;-75
2021/08/13 06:29:25;;;;;;;20.45;9.88;;;;;;;19.22;59.63;101296.77;1808051;78;25737;-68
2021/08/13 06:31:54;;;;;;;14.95;7.87;;;;;;;19.33;59.48;101295.53;1798163;78;26768;-69
2021/08/13 06:34:22;;;;;;;17.55;8.75;;;;;;;19.46;59.34;101288.75;1804265;78;25728;-68
2021/08/13 06:36:47;;;;;;;13.83;8.65;;;;;;;19.55;59.16;101297.66;1815857;78;25745;-68
2021/08/13 06:39:19;;;;;;;21.50;9.10;;;;;;;19.62;59.00;101297.60;1802601;78;25952;-68
2021/08/13 06:41:48;;;;;;;19.32;9.70;;;;;;;19.71;58.89;101298.31;1804348;78;26769;-68
2021/08/13 06:44:17;;;;;;;89.22;13.98;;;;;;;19.79;58.72;101290.96;1797552;78;26787;-69
2021/08/13 06:46:43;;;;;;;38.00;10.23;;;;;;;19.87;58.56;101295.36;1812205;78;26445;-68
2021/08/13 06:49:09;;;;;;;27.52;10.25;;;;;;;19.95;58.41;101296.17;1807297;78;25864;-67
2021/08/13 06:51:37;;;;;;;21.93;9.33;;;;;;;20.02;58.31;101301.06;1810752;78;26353;-68
2021/08/13 06:54:05;;;;;;;42.00;9.33;;;;;;;20.12;58.19;101292.23;1806838;78;25748;-67
2021/08/13 06:56:30;;;;;;;48.73;10.00;;;;;;;20.21;58.07;101293.78;1819221;78;27510;-68
2021/08/13 06:58:58;;;;;;;45.63;9.73;;;;;;;20.31;57.94;101292.62;1805851;78;26445;-68
2021/08/13 07:01:26;;;;;;;45.35;9.40;;;;;;;20.39;57.82;101291.10;1811245;78;26315;-68
2021/08/13 07:03:52;;;;;;;27.82;8.13;;;;;;;20.48;57.69;101291.41;1797174;78;25784;-68
2021/08/13 07:06:19;;;;;;;20.25;8.33;;;;;;;20.57;57.55;101294.80;1808025;78;25689;-69
2021/08/13 07:08:45;;;;;;;23.38;8.15;;;;;;;20.67;57.46;101295.85;1804940;78;27490;-68
2021/08/13 07:11:13;;;;;;;27.45;8.30;;;;;;;20.79;57.31;101292.20;1798989;78;26562;-67
2021/08/13 07:13:40;;;;;;;28.07;7.72;;;;;;;20.92;57.19;101298.42;1803721;78;25781;-67
2021/08/13 07:16:07;;;;;;;14.63;8.23;;;;;;;21.06;56.99;101297.37;1802991;78;25694;-66
2021/08/13 07:18:38;;;;;;;21.85;7.42;;;;;;;21.17;56.81;101303.36;1810145;78;25460;-67
2021/08/13 07:21:04;;;;;;;22.73;7.35;;;;;;;21.26;56.62;101304.91;1813810;78;27503;-70
2021/08/13 07:23:32;;;;;;;29.60;8.23;;;;;;;21.34;56.47;101299.73;1803603;78;25669;-71
2021/08/13 07:25:58;;;;;;;32.75;8.33;;;;;;;21.43;56.31;101297.27;1807512;78;25749;-70
2021/08/13 07:28:26;;;;;;;32.60;7.85;;;;;;;21.52;56.17;101296.05;1798286;78;25868;-70
2021/08/13 07:30:55;;;;;;;20.35;7.85;;;;;;;21.61;56.00;101295.33;1811445;78;26261;-70
2021/08/13 07:33:21;;;;;;;37.73;9.58;;;;;;;21.70;55.84;101293.73;1812542;78;27540;-71
2021/08/13 07:35:49;;;;;;;40.20;8.70;;;;;;;21.79;55.70;101292.13;1813829;78;25745;-71
2021/08/13 07:38:16;;;;;;;16.48;6.67;;;;;;;21.91;55.58;101290.64;1812285;78;25734;-71
2021/08/13 07:40:43;;;;;;;13.22;6.37;;;;;;;22.05;55.33;101280.50;1801119;78;25800;-71
2021/08/13 07:43:10;;;;;;;47.50;8.70;;;;;;;22.14;55.07;101278.39;1799897;77;25865;-71
2021/08/13 07:45:37;;;;;;;23.40;6.17;;;;;;;22.22;54.86;101275.40;1805538;78;27584;-71
2021/08/13 07:48:07;;;;;;;13.48;5.33;;;;;;;22.31;54.66;101271.04;1803775;78;25821;-71
2021/08/13 07:50:37;;;;;;;15.88;6.08;;;;;;;22.40;54.49;101266.68;1801194;78;25916;-71
2021/08/13 07:53:03;;;;;;;13.18;5.80;;;;;;;22.48;54.29;101255.98;1811474;78;26401;-70
2021/08/13 07:55:32;;;;;;;15.80;5.90;;;;;;;22.56;54.12;101249.38;1803583;78;25829;-71
2021/08/13 07:57:59;;;;;;;15.35;6.20;;;;;;;22.66;53.96;101257.17;1805166;78;27524;-73
2021/08/13 08:00:25;;;;;;;13.98;5.05;;;;;;;22.64;53.74;101231.84;1809101;78;25754;-70
2021/08/13 08:02:53;;;;;;;9.43;5.70;;;;;;;22.75;53.57;101232.30;1801772;78;26447;-70
2021/08/13 08:05:20;;;;;;;9.78;4.90;;;;;;;22.93;53.50;101258.96;1815029;78;25744;-70
2021/08/13 08:07:47;;;;;;;11.55;5.60;;;;;;;23.02;53.23;101263.27;1812161;78;25842;-70
2021/08/13 08:10:14;;;;;;;16.32;5.45;;;;;;;23.07;53.02;101259.64;1852025;76;27409;-71
2021/08/13 08:12:40;;;;;;;11.33;5.17;;;;;;;23.15;52.79;101257.12;1849425;76;25899;-71
2021/08/13 08:15:08;;;;;;;12.18;4.92;;;;;;;23.25;52.45;101250.72;1856915;76;25749;-70
2021/08/13 08:17:34;;;;;;;11.50;4.65;;;;;;;23.35;52.39;101252.15;1854013;76;25805;-70
2021/08/13 08:20:01;;;;;;;11.22;4.65;;;;;;;23.45;52.20;101260.39;1852090;75;25857;-70
2021/08/13 08:22:29;;;;;;;12.70;5.15;;;;;;;23.58;52.02;101261.94;1849855;76;27370;-71
2021/08/13 08:24:57;;;;;;;11.45;4.40;;;;;;;23.69;51.72;101257.39;1847532;76;25767;-71
2021/08/13 08:27:23;;;;;;;11.73;5.20;;;;;;;23.77;51.56;101254.84;1807254;78;25690;-70
2021/08/13 08:29:51;;;;;;;12.00;4.20;;;;;;;23.87;51.36;101248.91;1848440;76;26222;-71
2021/08/13 08:32:17;;;;;;;16.17;4.62;;;;;;;23.97;51.19;101244.34;1863716;76;25669;-71
2021/08/13 08:34:47;;;;;;;8.83;4.28;;;;;;;24.05;51.02;101242.28;1852606;76;27702;-71
2021/08/13 08:37:14;;;;;;;11.30;4.22;;;;;;;24.18;50.88;101242.39;1854941;76;25763;-62
2021/08/13 08:39:43;;;;;;;8.70;4.22;;;;;;;24.32;50.69;101252.12;1816894;78;26494;-61
2021/08/13 08:42:17;;;;;;;5.92;4.05;;;;;;;24.45;50.48;101243.64;1813215;78;25784;-61
2021/08/13 08:44:44;;;;;;;8.48;4.00;;;;;;;24.54;50.25;101244.16;1810406;78;25685;-65
2021/08/13 08:47:18;;;;;;;6.62;3.55;;;;;;;24.64;50.01;101245.05;1810860;78;27462;-63
2021/08/13 08:49:49;;;;;;;8.28;3.52;;;;;;;24.68;49.72;101242.38;1856613;76;25782;-61
2021/08/13 08:52:19;;;;;;;10.93;3.75;;;;;;;24.73;49.49;101243.31;1847329;76;25771;-62
2021/08/13 08:54:49;;;;;;;17.40;3.98;;;;;;;24.79;49.32;101254.58;1848329;76;26151;-56
2021/08/13 08:57:16;;;;;;;11.43;3.90;;;;;;;24.87;49.19;101251.12;1816091;78;26101;-65
2021/08/13 08:59:42;;;;;;;13.53;4.05;;;;;;;24.98;49.00;101245.52;1810461;78;27525;-60
2021/08/13 09:02:09;;;;;;;17.23;5.42;;;;;;;25.07;48.76;101243.78;1811459;78;25741;-57
2021/08/13 09:04:35;;;;;;;8.05;3.70;;;;;;;25.10;48.52;101247.10;1819052;77;25823;-56
2021/08/13 09:07:02;;;;;;;16.12;4.30;;;;;;;25.15;48.30;101241.18;1801753;78;27890;-57
2021/08/13 09:09:28;;;;;;;16.65;4.22;;;;;;;25.19;48.10;101238.50;1850898;76;25782;-57
2021/08/13 09:11:56;;;;;;;11.75;3.92;;;;;;;25.25;47.91;101236.55;1852327;76;28255;-56
2021/08/13 09:14:25;;;;;;;20.25;4.37;;;;;;;25.28;47.65;101240.36;1860163;76;25806;-57
2021/08/13 09:17:04;;;;;;;14.53;3.37;;;;;;;25.31;47.36;101237.33;1806459;78;25830;-57
2021/08/13 09:19:50;;;;;;;17.42;4.10;;;;;;;25.35;47.16;101237.39;1855653;76;25878;-57
2021/08/13 09:22:20;;;;;;;9.28;3.70;;;;;;;25.38;46.91;101234.36;1820332;77;25764;-57
2021/08/13 09:24:49;;;;;;;14.65;4.12;;;;;;;25.44;46.68;101234.27;1853300;76;28097;-58
2021/08/13 09:27:24;;;;;;;6.35;3.62;;;;;;;25.46;46.43;101238.59;1853213;76;26126;-57
2021/08/13 09:30:14;;;;;;;15.28;4.80;;;;;;;25.48;46.26;101235.20;1852660;76;25793;-56
2021/08/13 09:32:59;;;;;;;15.53;3.87;;;;;;;25.50;46.08;101228.19;1812011;78;26426;-59
2021/08/13 09:35:38;;;;;;;12.45;3.77;;;;;;;25.55;45.98;101232.22;1846445;76;25823;-55
2021/08/13 09:38:14;;;;;;;12.25;3.65;;;;;;;25.67;45.78;101240.30;1809286;78;27984;-59
2021/08/13 09:40:46;;;;;;;6.95;3.75;;;;;;;25.76;45.52;101238.03;1810207;78;25698;-72
2021/08/13 09:43:12;;;;;;;13.00;3.67;;;;;;;25.81;45.34;101243.94;1812332;78;25806;-72
2021/08/13 09:45:43;;;;;;;13.50;3.58;;;;;;;25.85;45.16;101232.50;1807044;78;25864;-73
2021/08/13 09:48:28;;;;;;;10.58;3.17;;;;;;;25.92;44.98;101234.14;1812005;78;25995;-73
2021/08/13 09:50:53;;;;;;;10.38;3.02;;;;;;;25.98;44.74;101235.41;1811477;78;28458;-72
2021/08/13 09:53:21;;;;;;;6.47;3.17;;;;;;;26.08;44.53;101235.69;1850300;76;25746;-72
2021/08/13 09:55:49;;;;;;;16.62;3.75;;;;;;;26.15;44.23;101231.31;1852148;76;25281;-72
2021/08/13 09:58:29;;;;;;;13.80;4.37;;;;;;;26.20;44.09;101224.84;1849389;76;25704;-73
2021/08/13 10:00:55;;;;;;;12.15;3.62;;;;;;;26.27;43.94;101215.98;1848756;76;25744;-73
2021/08/13 10:03:22;;;;;;;10.53;3.50;;;;;;;26.33;43.80;101215.41;1806907;78;27459;-73
2021/08/13 10:06:06;;;;;;;11.30;4.05;;;;;;;26.38;43.61;101208.93;1805300;78;26053;-72
2021/08/13 10:08:41;;;;;;;21.93;5.22;;;;;;;26.46;43.48;101213.14;1773815;79;25803;-69
2021/08/13 10:11:15;;;;;;;14.00;4.20;;;;;;;26.53;43.30;101209.62;1789823;79;25744;-77
2021/08/13 10:13:43;;;;;;;12.25;4.00;;;;;;;26.68;43.15;101209.94;1792926;79;25854;-67
2021/08/13 10:16:09;;;;;;;15.60;3.70;;;;;;;26.77;42.96;101208.99;1785764;79;27490;-72
2021/08/13 10:18:36;;;;;;;10.00;3.50;;;;;;;26.84;42.40;101218.85;1795492;79;25732;-70
2021/08/13 10:21:02;;;;;;;7.75;3.45;;;;;;;26.84;42.46;101216.97;1787349;78;25718;-71
2021/08/13 10:23:29;;;;;;;10.78;4.00;;;;;;;26.85;42.41;101211.81;1821860;77;25833;-75
2021/08/13 10:25:58;;;;;;;8.48;3.45;;;;;;;26.90;42.37;101213.23;1814960;77;25766;-62
2021/08/13 10:28:26;;;;;;;11.00;3.45;;;;;;;26.92;42.07;101202.94;1820505;77;27504;-62
2021/08/13 10:30:54;;;;;;;6.95;3.65;;;;;;;26.88;42.02;101209.27;1821847;77;25741;-60
2021/08/13 10:33:20;;;;;;;3.42;3.10;;;;;;;26.91;41.87;101214.95;1829779;77;25704;-61
2021/08/13 10:35:56;;;;;;;7.17;3.58;;;;;;;26.99;41.77;101211.80;1831636;76;25661;-61
2021/08/13 10:38:27;;;;;;;7.05;3.47;;;;;;;27.02;41.47;101211.48;1817407;77;25730;-61
2021/08/13 10:40:56;;;;;;;9.53;3.58;;;;;;;27.00;41.40;101203.90;1815107;77;27390;-61
2021/08/13 10:43:30;;;;;;;8.15;4.42;;;;;;;27.05;41.15;101207.55;1822246;77;25747;-61
2021/08/13 10:46:00;;;;;;;7.30;3.22;;;;;;;27.16;41.20;101197.16;1816408;77;25903;-61
2021/08/13 10:48:28;;;;;;;8.40;3.37;;;;;;;27.31;41.15;101197.94;1820029;77;25702;-61
2021/08/13 10:50:59;;;;;;;11.03;3.60;;;;;;;27.39;41.12;101200.23;1814334;77;25829;-61
2021/08/13 10:53:33;;;;;;;;;;;;;;;27.45;40.83;101192.70;1819835;77;27504;-62
2021/08/13 10:56:03;;;;;;;6.55;3.12;;;;;;;27.46;40.60;101193.05;1830425;77;25645;-63
2021/08/13 10:58:42;;;;;;;8.80;3.33;;;;;;;27.48;40.75;101192.89;1822887;77;25725;-63
2021/08/13 11:01:15;;;;;;;17.37;3.80;;;;;;;27.60;40.54;101189.37;1826364;77;25755;-63
2021/08/13 11:03:59;;;;;;;14.45;4.03;;;;;;;27.75;40.40;101187.73;1814904;77;26454;-63
2021/08/13 11:06:41;;;;;;;7.70;3.60;;;;;;;27.81;40.31;101173.30;1820969;77;27439;-62
2021/08/13 11:09:17;;;;;;;8.45;3.35;;;;;;;27.93;40.24;101188.52;1814365;77;25700;-61
2021/08/13 11:11:59;;;;;;;6.53;3.35;;;;;;;28.07;40.05;101182.87;1819389;77;25772;-62
2021/08/13 11:14:29;;;;;;;10.72;3.33;;;;;;;28.20;39.84;101179.65;1818385;77;25762;-63
2021/08/13 11:16:59;;;;;;;6.03;3.17;;;;;;;28.22;39.55;101184.00;1831809;77;26162;-62
2021/08/13 11:19:27;;;;;;;12.50;3.72;;;;;;;28.33;39.46;101181.44;1818800;77;28053;-62
2021/08/13 11:21:59;;;;;;;17.57;3.90;;;;;;;28.39;39.34;101175.25;1817716;77;26136;-62
2021/08/13 11:24:48;;;;;;;11.28;3.92;;;;;;;28.50;39.19;101172.17;1823884;77;25777;-62
2021/08/13 11:27:18;;;;;;;6.78;3.60;;;;;;;28.66;38.89;101169.91;1815241;77;25707;-62
2021/08/13 11:29:46;;;;;;;7.75;3.75;;;;;;;28.76;38.22;101172.85;1824539;77;25689;-63